Hurley, Mississippi
Current Conditions -  °F | °C
As of 9:53 AM on Wednesday 26 Nov 2014 (Local Time) from KPQL Reporting Station
Clear Clear  
Wind Chill: 54°   Ceiling: Unl
Heat Index: 54°   Visibility: 10mi
Dew Point: 25°   Wind: 3mph
Humidity: 33%   Direction: 30°NNE
Pressure: 30.28"   Gusts: NA
Location:  30.66°N, 88.49°W
Report Text: KPQL 261553Z AUTO 03003KT 10SM CLR 12/M04 A3028 RMK AO2 SLP255 T01221039 TSNO
Loading
Personal Weather Stations






























Interactive Weather Map New forecast layout! Learn more

10-Day Weather Forecast

Advertisements
Track Severe Weather on mobile